M I D A S
Marine Information and Data Acquisition System
Tripno 725 of the Zeeleeuw from 2004-05-28 07:30:34 to 2004-05-28 13:58:28
Back to CruiseResearch ActivitiesStationsMapUnderway DataData graphs

EquipmentUnitsComment
TimeDGPSUTC
LatitudeDGPSDM.mWGS84
LongitudeDGPSDM.mWGS84
TemperatureSBE03/SBE38deg celciusITS90
ConductivitySBE21S/mITS90
SalinitySBE21 Practical Salinity Units
ChlorophylAChelsea fluorimeterg/lCalibrated in Aceton
Missing or incorrect values are displayed as -999
Sea surface data collected by the RV Zeeleeuw from 2004-05-28 07:30:34 to 2004-05-28 13:58:28
Time Latitude Longitude Temperature Conductivity Salinity ChlorophylA
2004-05-28 07:31:50 51°9.137 2°34.731 14.835576 3.986811 32.22504 10.747366
2004-05-28 07:32:50 51°9.149 2°34.671 14.842335 3.988919 32.239666 10.646238
2004-05-28 07:33:50 51°9.159 2°34.612 14.85014 3.99166 32.258114 10.5114
2004-05-28 07:34:49 51°9.156 2°34.555 14.839719 3.994296 32.278734 10.477691
2004-05-28 07:35:54 51°9.147 2°34.488 14.80574 3.99767 32.337316 10.612529
2004-05-28 07:36:58 51°9.136 2°34.419 14.811892 3.998197 32.34646 10.578819
2004-05-28 07:38:13 51°9.122 2°34.338 14.8091 3.999989 32.361998 10.578819
2004-05-28 07:39:13 51°9.111 2°34.269 14.800592 4.003574 32.401874 10.713657
2004-05-28 07:40:12 51°9.099 2°34.195 14.803559 4.005893 32.41966 10.679947
2004-05-28 07:41:13 51°9.084 2°34.119 14.791734 4.008845 32.452594 10.713657
2004-05-28 07:42:20 51°9.069 2°34.035 14.759609 4.013906 32.522886 10.949623
2004-05-28 07:43:20 51°9.057 2°33.963 14.796447 4.01496 32.525465 10.949623
2004-05-28 07:44:21 51°9.044 2°33.89 14.814945 4.015487 32.50625 10.848494
2004-05-28 07:45:27 51°9.031 2°33.81 14.807049 4.016541 32.510723 10.848494
2004-05-28 07:46:33 51°9.019 2°33.731 14.801072 4.017806 32.532236 10.949623
2004-05-28 07:47:33 51°9.005 2°33.664 14.818959 4.017279 32.521799 10.915913
2004-05-28 07:48:30 51°8.986 2°33.604 14.829688 4.018333 32.519333 10.814785
2004-05-28 07:49:34 51°8.965 2°33.536 14.834093 4.018544 32.512412 10.814785
2004-05-28 07:50:39 51°8.943 2°33.466 14.832872 4.019282 32.51781 10.848494
2004-05-28 07:51:38 51°8.925 2°33.401 14.84046 4.019704 32.517204 10.882204
2004-05-28 07:52:38 51°8.907 2°33.334 14.834049 4.019387 32.515611 10.848494
2004-05-28 07:53:39 51°8.888 2°33.266 14.838018 4.019598 32.519403 10.882204
2004-05-28 07:54:43 51°8.867 2°33.192 14.845518 4.018965 32.504878 10.848494
2004-05-28 07:55:43 51°8.848 2°33.124 14.836404 4.020125 32.517228 10.848494
2004-05-28 07:56:42 51°8.83 2°33.055 14.84155 4.020441 32.521971 10.814785
2004-05-28 07:57:48 51°8.811 2°32.976 14.847219 4.021074 32.526417 10.882204
2004-05-28 07:58:49 51°8.82 2°32.894 14.832131 4.022234 32.536879 10.949623
2004-05-28 07:59:49 51°8.861 2°32.84 14.737077 4.028244 32.618908 11.08446
2004-05-28 08:00:48 51°8.902 2°32.82 14.682639 4.037733 32.791775 11.792358
2004-05-28 08:01:48 51°8.939 2°32.812 14.635286 4.039316 32.844449 12.163161
2004-05-28 08:02:48 51°8.97 2°32.804 14.580021 4.038051 32.858583 12.399127
2004-05-28 08:03:48 51°9.002 2°32.803 14.523966 4.025927 32.81319 12.500255
2004-05-28 08:04:48 51°9.043 2°32.854 14.479527 4.016334 32.760565 12.500255
2004-05-28 08:05:48 51°9.075 2°32.939 14.461682 4.009693 32.727689 12.365418
2004-05-28 08:06:48 51°9.096 2°33.028 14.452209 4.007163 32.718758 12.533965
2004-05-28 08:07:46 51°9.101 2°33.117 14.447122 4.005581 32.708846 12.533965
2004-05-28 08:08:48 51°9.098 2°33.212 14.440235 4.004843 32.706613 12.601383
2004-05-28 08:09:48 51°9.093 2°33.305 14.4412 4.004422 32.709184 12.567674
2004-05-28 08:10:48 51°9.092 2°33.4 14.440235 4.004527 32.707579 12.432836
2004-05-28 08:11:48 51°9.096 2°33.497 14.471548 4.005581 32.715899 12.399127
2004-05-28 08:12:47 51°9.105 2°33.594 14.625969 4.011062 32.688949 12.028324
2004-05-28 08:13:48 51°9.11 2°33.697 14.746117 4.016964 32.617025 11.354136
2004-05-28 08:14:48 51°9.115 2°33.798 14.817126 4.018966 32.560395 11.08446
2004-05-28 08:15:55 51°9.121 2°33.912 14.865616 4.019598 32.510583 10.882204
2004-05-28 08:16:55 51°9.126 2°34.013 14.892855 4.019492 32.486347 10.747366
2004-05-28 08:17:54 51°9.133 2°34.112 14.906796 4.019492 32.467495 10.679947
2004-05-28 08:19:04 51°9.139 2°34.228 14.908408 4.019913 32.46313 10.679947
2004-05-28 08:20:03 51°9.144 2°34.324 14.898954 4.02023 32.467862 10.747366
2004-05-28 08:21:07 51°9.15 2°34.429 14.915465 4.020441 32.471017 10.848494
2004-05-28 08:22:06 51°9.156 2°34.521 14.924786 4.018437 32.436667 10.747366
2004-05-28 08:23:06 51°9.163 2°34.612 14.929663 4.015485 32.410097 10.713657
2004-05-28 08:24:06 51°9.172 2°34.728 14.943119 4.011268 32.364015 10.713657
2004-05-28 08:25:08 51°9.181 2°34.853 14.948648 4.008105 32.321825 10.612529
2004-05-28 08:26:08 51°9.186 2°34.974 14.936849 4.005575 32.305315 10.781076
2004-05-28 08:27:06 51°9.191 2°35.091 14.947647 4.005153 32.301523 10.713657
2004-05-28 08:28:07 51°9.196 2°35.211 14.953306 4.005364 32.29718 10.679947
2004-05-28 08:29:07 51°9.2 2°35.304 14.957268 4.005364 32.294062 10.814785
2004-05-28 08:30:19 51°9.204 2°35.397 14.963971 4.004204 32.278028 10.949623
2004-05-28 08:31:19 51°9.209 2°35.47 14.961099 4.002834 32.262597 10.915913
2004-05-28 08:32:19 51°9.213 2°35.544 14.953742 4.000514 32.244246 10.915913
2004-05-28 08:33:18 51°9.218 2°35.618 14.940637 3.997774 32.227705 10.949623
2004-05-28 08:34:18 51°9.22 2°35.692 14.915509 3.994611 32.21359 10.983332
2004-05-28 08:35:23 51°9.221 2°35.769 14.895077 3.991449 32.210052 11.11817
2004-05-28 08:36:22 51°9.228 2°35.838 14.878866 3.989867 32.205168 11.253007
2004-05-28 08:37:24 51°9.313 2°35.911 14.897735 3.988497 32.201557 11.590101
2004-05-28 08:38:23 51°9.513 2°35.868 14.894249 3.989973 32.19055 11.11817
2004-05-28 08:39:24 51°9.751 2°35.811 14.893508 3.98934 32.196066 11.151879
2004-05-28 08:40:34 51°10.031 2°35.758 14.839719 3.994401 32.244091 11.050751
2004-05-28 08:41:34 51°10.269 2°35.782 14.73996 3.999884 32.374231 11.050751
2004-05-28 08:42:34 51°10.507 2°35.83 14.698022 3.99609 32.401596 11.320426
2004-05-28 08:43:34 51°10.71 2°36.018 14.685742 3.996406 32.417692 11.69123
2004-05-28 08:44:34 51°10.875 2°36.3 14.663186 3.995563 32.436567 11.960905
2004-05-28 08:45:34 51°11.048 2°36.568 14.630912 3.996407 32.468859 12.163161
2004-05-28 08:46:34 51°11.22 2°36.837 14.737863 3.998515 32.479099 12.365418
2004-05-28 08:47:33 51°11.388 2°37.098 14.764673 4.003785 32.426421 12.432836
2004-05-28 08:48:34 51°11.563 2°37.368 14.780562 3.99883 32.389225 12.533965
2004-05-28 08:49:34 51°11.727 2°37.644 14.800199 3.998724 32.358744 12.466546
2004-05-28 08:50:33 51°11.886 2°37.921 14.791516 3.992399 32.308575 12.668802
2004-05-28 08:51:34 51°12.051 2°38.207 14.763494 3.988815 32.27937 12.938477
2004-05-28 08:52:34 51°12.212 2°38.489 14.717028 3.978589 32.234047 13.174443
2004-05-28 08:53:44 51°12.402 2°38.819 14.706761 3.975321 32.214552 13.140734
2004-05-28 08:54:42 51°12.56 2°39.091 14.696974 3.971527 32.20344 13.107024
2004-05-28 08:55:44 51°12.728 2°39.381 14.634061 3.96478 32.16187 13.140734
2004-05-28 08:56:43 51°12.884 2°39.665 14.63323 3.958982 32.133231 13.140734
2004-05-28 08:57:43 51°13.038 2°39.958 14.627675 3.957401 32.120806 13.073315
2004-05-28 08:58:44 51°13.186 2°40.27 14.620501 3.957296 32.126739 13.107024
2004-05-28 08:59:51 51°13.346 2°40.618 14.66782 3.958982 32.123842 13.073315
2004-05-28 09:00:52 51°13.49 2°40.935 14.682639 3.962144 32.126159 12.972187
2004-05-28 09:01:52 51°13.632 2°41.246 14.659994 3.96109 32.128514 12.938477
2004-05-28 09:02:52 51°13.772 2°41.549 14.654703 3.95972 32.121754 12.938477
2004-05-28 09:03:56 51°13.837 2°41.745 14.637079 3.958877 32.123514 13.107024
2004-05-28 09:04:56 51°13.854 2°41.844 14.644995 3.958982 32.126971 13.073315
2004-05-28 09:06:02 51°13.859 2°41.851 14.648538 3.960458 32.128426 12.938477
2004-05-28 09:07:01 51°13.862 2°41.864 14.636467 3.959088 32.132306 13.140734
2004-05-28 09:08:09 51°13.863 2°41.974 14.655665 3.958245 32.135324 13.241862
2004-05-28 09:09:10 51°13.865 2°42.062 14.725285 3.963725 32.129819 12.736221
2004-05-28 09:10:10 51°13.872 2°42.142 14.770566 3.968152 32.128573 12.365418
2004-05-28 09:11:10 51°13.884 2°42.219 14.793305 3.972052 32.12945 12.23058
2004-05-28 09:12:10 51°13.896 2°42.295 14.794396 3.973001 32.134886 12.196871
2004-05-28 09:13:10 51°13.912 2°42.369 14.816777 3.974161 32.133497 12.196871
2004-05-28 09:14:10 51°13.93 2°42.443 14.820049 3.976269 32.134429 12.163161
2004-05-28 09:15:10 51°13.947 2°42.516 14.802032 3.975426 32.135551 12.23058
2004-05-28 09:16:10 51°13.965 2°42.591 14.790949 3.973528 32.134028 12.331708
2004-05-28 09:17:10 51°13.981 2°42.665 14.779296 3.97258 32.133578 12.331708
2004-05-28 09:18:10 51°13.996 2°42.739 14.792258 3.971736 32.131586 12.432836
2004-05-28 09:19:10 51°14.011 2°42.813 14.823451 3.974793 32.129852 12.297999
2004-05-28 09:20:10 51°14.026 2°42.887 14.851797 3.97669 32.126399 12.297999
2004-05-28 09:21:10 51°14.042 2°42.96 14.861344 3.977955 32.126589 12.264289
2004-05-28 09:22:10 51°14.063 2°43.03 14.896253 3.979431 32.124326 12.23058
2004-05-28 09:23:10 51°14.084 2°43.098 14.920822 3.982382 32.126021 12.23058
2004-05-28 09:24:10 51°14.105 2°43.166 14.939374 3.985017 32.124878 12.23058
2004-05-28 09:25:18 51°14.128 2°43.243 14.943162 3.985334 32.122756 12.196871
2004-05-28 09:26:18 51°14.149 2°43.313 14.958966 3.985861 32.121288 12.196871
2004-05-28 09:27:18 51°14.169 2°43.383 14.952479 3.987758 32.122829 12.196871
2004-05-28 09:28:22 51°14.19 2°43.458 14.992563 3.988601 32.122963 12.196871
2004-05-28 09:29:22 51°14.214 2°43.53 15.025099 3.991447 32.120632 12.23058
2004-05-28 09:30:22 51°14.244 2°43.603 15.052882 3.994293 32.121405 12.163161
2004-05-28 09:31:22 51°14.276 2°43.678 15.044622 3.996612 32.122404 12.095742
2004-05-28 09:32:23 51°14.309 2°43.755 15.033318 3.993872 32.126286 12.196871
2004-05-28 09:33:23 51°14.339 2°43.832 15.002351 3.994083 32.129415 12.264289
2004-05-28 09:34:23 51°14.367 2°43.91 14.971806 3.989972 32.132787 12.331708
2004-05-28 09:35:23 51°14.397 2°43.987 14.972372 3.98955 32.129621 12.365418
2004-05-28 09:36:22 51°14.423 2°44.061 14.943815 3.987653 32.126842 12.399127
2004-05-28 09:37:22 51°14.449 2°44.128 15.007745 3.98818 32.121036 12.399127
2004-05-28 09:38:23 51°14.473 2°44.177 15.062966 3.994083 32.121989 12.331708
2004-05-28 09:39:23 51°14.495 2°44.215 15.122659 3.998404 32.12301 12.331708
2004-05-28 09:40:22 51°14.571 2°44.232 15.0674 4.003359 32.12168 12.297999
2004-05-28 09:41:22 51°14.647 2°44.181 14.890414 3.987863 32.105189 12.533965
2004-05-28 09:42:27 51°14.715 2°44.152 14.695619 3.966255 32.087765 13.140734
2004-05-28 09:43:30 51°14.769 2°44.185 14.694395 3.957611 32.070221 13.174443
2004-05-28 09:44:30 51°14.79 2°44.251 14.712092 3.957611 32.068349 13.073315
2004-05-28 09:45:29 51°14.773 2°44.322 14.694395 3.95856 32.069432 13.039606
2004-05-28 09:46:37 51°14.725 2°44.381 14.646526 3.955187 32.070159 13.309281
2004-05-28 09:47:36 51°14.672 2°44.402 14.613807 3.950865 32.063566 13.578956
2004-05-28 09:48:36 51°14.615 2°44.397 14.617132 3.948757 32.05887 13.814922
2004-05-28 09:49:36 51°14.562 2°44.359 14.702348 3.952235 32.059091 13.781212
2004-05-28 09:50:36 51°14.52 2°44.294 14.799414 3.964463 32.08157 13.34299
2004-05-28 09:51:36 51°14.483 2°44.221 14.869016 3.972579 32.100573 13.241862
2004-05-28 09:52:36 51°14.45 2°44.144 14.889194 3.979852 32.111343 13.107024
2004-05-28 09:53:36 51°14.414 2°44.069 14.901351 3.979852 32.113827 13.005896
2004-05-28 09:54:36 51°14.378 2°43.995 14.922216 3.98196 32.112296 12.76993
2004-05-28 09:55:36 51°14.348 2°43.914 14.837756 3.979325 32.117162 13.039606
2004-05-28 09:56:36 51°14.319 2°43.833 14.812284 3.974371 32.116714 13.275571
2004-05-28 09:57:36 51°14.29 2°43.752 14.802948 3.97279 32.11741 13.34299
2004-05-28 09:58:35 51°14.26 2°43.673 14.855328 3.973422 32.110658 13.208153
2004-05-28 09:59:35 51°14.229 2°43.592 14.882396 3.977217 32.104407 13.107024
2004-05-28 10:00:36 51°14.197 2°43.511 14.909062 3.979009 32.098792 13.005896
2004-05-28 10:01:36 51°14.166 2°43.43 14.912372 3.980379 32.097461 12.972187
2004-05-28 10:02:37 51°14.134 2°43.347 14.903616 3.979114 32.096016 13.073315
2004-05-28 10:03:39 51°14.101 2°43.262 14.907885 3.978903 32.089778 13.039606
2004-05-28 10:04:39 51°14.073 2°43.177 14.911414 3.97943 32.091414 13.039606
2004-05-28 10:05:51 51°14.052 2°43.064 14.872547 3.977744 32.093002 13.174443
2004-05-28 10:06:52 51°14.038 2°42.967 14.826766 3.974371 32.098677 13.3767
2004-05-28 10:07:56 51°14.02 2°42.867 14.869321 3.974793 32.098122 13.275571
2004-05-28 10:08:55 51°14.004 2°42.773 14.883965 3.978166 32.101762 13.107024
2004-05-28 10:10:19 51°13.978 2°42.64 14.853323 3.978377 32.114219 13.039606
2004-05-28 10:11:43 51°13.957 2°42.521 14.818042 3.975742 32.1191 13.107024
2004-05-28 10:12:55 51°13.944 2°42.441 14.800941 3.973317 32.124028 13.275571
2004-05-28 10:13:55 51°13.95 2°42.323 14.893072 3.974793 32.121757 13.309281
2004-05-28 10:14:55 51°14.023 2°42.108 14.906709 3.988285 32.119504 12.837349
2004-05-28 10:15:56 51°14.117 2°41.853 14.794396 3.975847 32.13499 13.309281
2004-05-28 10:16:56 51°14.236 2°41.538 14.730439 3.969944 32.132263 13.477828
2004-05-28 10:17:55 51°14.355 2°41.222 14.65772 3.965728 32.138537 13.781212
2004-05-28 10:18:55 51°14.477 2°40.897 14.614682 3.961618 32.140162 13.848631
2004-05-28 10:19:55 51°14.593 2°40.566 14.604924 3.957823 32.163487 13.747503
2004-05-28 10:20:56 51°14.712 2°40.232 14.644689 3.968364 32.203057 13.814922
2004-05-28 10:21:56 51°14.828 2°39.899 14.451639 3.97332 32.300733 14.219435
2004-05-28 10:22:55 51°14.944 2°39.572 14.420844 3.965311 32.387481 14.286853
2004-05-28 10:23:55 51°15.061 2°39.243 14.511917 3.972373 32.424432 13.983469
2004-05-28 10:24:54 51°15.175 2°38.919 14.314575 3.985235 32.57855 13.511537
2004-05-28 10:25:57 51°15.298 2°38.574 14.23098 3.977752 32.594199 13.680084
2004-05-28 10:27:00 51°15.423 2°38.234 14.339181 3.975433 32.612839 13.747503
2004-05-28 10:28:00 51°15.54 2°37.91 14.219978 3.987345 32.667704 13.410409
2004-05-28 10:29:02 51°15.665 2°37.573 14.262918 3.979123 32.652385 13.680084
2004-05-28 10:30:04 51°15.81 2°37.257 14.270702 3.981969 32.643013 13.612665
2004-05-28 10:31:04 51°16.005 2°37.046 14.265073 3.981336 32.625662 13.781212
2004-05-28 10:32:02 51°16.221 2°36.925 14.249458 3.982917 32.635611 13.545247
2004-05-28 10:33:04 51°16.368 2°36.715 14.383493 3.976382 32.633746 13.713794
2004-05-28 10:34:04 51°16.352 2°36.585 14.5886 4.002418 32.624425 12.837349
2004-05-28 10:35:04 51°16.328 2°36.532 14.608381 4.011694 32.639825 12.80364
2004-05-28 10:36:03 51°16.314 2°36.5 14.596741 4.01201 32.64588 12.837349
2004-05-28 10:37:03 51°16.299 2°36.47 14.608294 4.012327 32.649387 13.005896
2004-05-28 10:38:03 51°16.253 2°36.416 14.603437 4.013592 32.648763 13.107024
2004-05-28 10:39:03 51°16.208 2°36.36 14.470408 4.008321 32.654462 13.174443
2004-05-28 10:40:04 51°16.167 2°36.308 14.433041 3.998729 32.653491 13.241862
2004-05-28 10:41:03 51°16.128 2°36.259 14.418431 3.997886 32.650292 13.275571
2004-05-28 10:42:04 51°16.087 2°36.21 14.432953 3.997358 32.647412 13.275571
2004-05-28 10:43:04 51°16.047 2°36.16 14.408557 3.996621 32.649654 13.275571
2004-05-28 10:44:02 51°16.008 2°36.112 14.429443 3.995672 32.646134 13.275571
2004-05-28 10:45:04 51°15.966 2°36.061 14.453832 3.998518 32.646451 13.241862
2004-05-28 10:46:04 51°15.926 2°36.009 14.429531 3.998518 32.649011 13.275571
2004-05-28 10:47:03 51°15.887 2°35.96 14.413691 3.996515 32.649334 13.309281
2004-05-28 10:48:34 51°15.825 2°35.883 14.40092 3.995672 32.648055 13.34299
2004-05-28 10:50:02 51°15.764 2°35.806 14.359562 3.993037 32.650309 13.410409
2004-05-28 10:51:06 51°15.721 2°35.749 14.348494 3.990718 32.652248 13.511537
2004-05-28 10:52:06 51°15.678 2°35.695 14.362241 3.990823 32.64936 13.477828
2004-05-28 10:53:06 51°15.636 2°35.638 14.377566 3.992193 32.654162 13.477828
2004-05-28 10:54:06 51°15.592 2°35.582 14.385908 3.993985 32.65383 13.410409
2004-05-28 10:55:06 51°15.548 2°35.526 14.400701 3.994512 32.654147 13.410409
2004-05-28 10:56:10 51°15.502 2°35.466 14.408601 3.996199 32.657984 13.410409
2004-05-28 10:57:11 51°15.458 2°35.41 14.410883 3.996199 32.660548 13.410409
2004-05-28 10:58:11 51°15.414 2°35.353 14.431505 3.997042 32.659261 13.444118
2004-05-28 10:59:18 51°15.364 2°35.29 14.439577 3.99894 32.658612 13.444118
2004-05-28 11:00:18 51°15.32 2°35.233 14.45199 3.999572 32.65605 13.410409
2004-05-28 11:01:16 51°15.278 2°35.178 14.453744 4.000626 32.659247 13.410409
2004-05-28 11:02:18 51°15.232 2°35.121 14.53413 4.003051 32.654448 13.444118
2004-05-28 11:03:18 51°15.187 2°35.066 14.576913 4.009692 32.652236 13.309281
2004-05-28 11:04:18 51°15.143 2°35.009 14.603305 4.0118 32.654801 13.241862
2004-05-28 11:05:18 51°15.1 2°34.951 14.73354 4.018757 32.649143 13.208153
2004-05-28 11:06:18 51°15.067 2°34.888 14.702873 4.026768 32.648642 13.140734
2004-05-28 11:07:18 51°15.05 2°34.822 14.59766 4.015595 32.656106 13.410409
2004-05-28 11:08:18 51°15.047 2°34.745 14.583698 4.011694 32.653206 13.477828
2004-05-28 11:09:25 51°15.072 2°34.669 14.565399 4.013276 32.654812 13.410409
2004-05-28 11:10:25 51°15.107 2°34.642 14.511917 4.007267 32.659565 13.477828
2004-05-28 11:11:24 51°15.145 2°34.662 14.570959 4.007372 32.650309 13.477828
2004-05-28 11:12:30 51°15.19 2°34.71 14.516825 4.010008 32.655746 13.578956
2004-05-28 11:13:30 51°15.227 2°34.752 14.519454 4.006951 32.660523 13.680084
2004-05-28 11:14:30 51°15.264 2°34.789 14.582823 4.007583 32.652224 13.578956
2004-05-28 11:15:30 51°15.299 2°34.824 14.654047 4.014751 32.64973 13.477828
2004-05-28 11:16:30 51°15.334 2°34.861 14.653392 4.019811 32.656787 13.410409
2004-05-28 11:17:30 51°15.365 2°34.903 14.571134 4.016754 32.668535 13.511537
2004-05-28 11:18:30 51°15.387 2°34.953 14.501487 4.008954 32.671703 13.882341
2004-05-28 11:19:30 51°15.408 2°35.005 14.465278 4.004527 32.670433 13.949759
2004-05-28 11:20:34 51°15.433 2°35.06 14.474749 4.002735 32.665001 13.882341
2004-05-28 11:21:34 51°15.457 2°35.111 14.407811 4.001048 32.67205 13.91605
2004-05-28 11:22:34 51°15.481 2°35.16 14.464532 3.999572 32.665654 13.91605
2004-05-28 11:23:34 51°15.504 2°35.21 14.493774 4.003156 32.661801 13.814922
2004-05-28 11:24:34 51°15.529 2°35.259 14.512662 4.004948 32.660841 13.781212
2004-05-28 11:25:34 51°15.554 2°35.307 14.523178 4.006529 32.658606 13.781212
2004-05-28 11:26:34 51°15.577 2°35.357 14.52274 4.007373 32.661162 13.781212
2004-05-28 11:27:34 51°15.6 2°35.406 14.493116 4.006213 32.66148 13.848631
2004-05-28 11:28:33 51°15.623 2°35.453 14.460805 4.003683 32.667237 13.949759
2004-05-28 11:29:34 51°15.648 2°35.502 14.436682 4.000732 32.664688 14.050888
2004-05-28 11:30:34 51°15.672 2°35.549 14.440104 3.999256 32.662133 14.118306
2004-05-28 11:31:32 51°15.696 2°35.595 14.45506 4.000205 32.659889 14.152016
2004-05-28 11:32:34 51°15.72 2°35.645 14.45677 4.000837 32.659247 14.152016
2004-05-28 11:33:34 51°15.742 2°35.694 14.458525 4.000837 32.656047 14.185725
2004-05-28 11:34:34 51°15.763 2°35.743 14.455937 4.000626 32.654128 14.152016
2004-05-28 11:35:34 51°15.785 2°35.791 14.471153 4.00031 32.648691 14.185725
2004-05-28 11:36:34 51°15.807 2°35.839 14.495571 4.001891 32.647734 14.152016
2004-05-28 11:37:34 51°15.829 2°35.885 14.536188 4.004315 32.644228 14.084597
2004-05-28 11:38:34 51°15.851 2°35.932 14.623957 4.009586 32.641077 14.050888
2004-05-28 11:39:39 51°15.874 2°35.982 14.683294 4.017176 32.643079 13.983469
2004-05-28 11:40:39 51°15.889 2°36.013 14.717116 4.021708 32.64474 14.017178
2004-05-28 11:41:42 51°15.944 2°36.111 14.713271 4.024027 32.648591 14.017178
2004-05-28 11:42:44 51°16.064 2°36.377 14.65243 4.022446 32.652057 14.050888
2004-05-28 11:43:44 51°16.18 2°36.67 14.771003 4.025081 32.614384 14.590238
2004-05-28 11:44:44 51°16.292 2°36.969 14.775499 4.025081 32.611218 13.848631
2004-05-28 11:45:43 51°16.385 2°37.276 14.51757 4.021181 32.627274 14.017178
2004-05-28 11:46:44 51°16.479 2°37.596 14.375678 3.997569 32.638453 14.623947
2004-05-28 11:47:44 51°16.572 2°37.909 14.429443 3.993037 32.658005 14.792494
2004-05-28 11:48:43 51°16.665 2°38.213 14.23164 3.996199 32.682998 14.893623
2004-05-28 11:49:44 51°16.766 2°38.509 14.261598 3.983656 32.678392 15.298136
2004-05-28 11:50:44 51°16.854 2°38.813 14.275627 3.987872 32.685389 15.298136
2004-05-28 11:51:44 51°16.918 2°39.139 14.365008 3.98587 32.689619 15.399264
2004-05-28 11:52:44 51°16.982 2°39.474 14.460937 3.994934 32.635569 14.893623
2004-05-28 11:53:44 51°17.044 2°39.808 14.543109 3.998728 32.603643 15.095879
2004-05-28 11:54:44 51°17.108 2°40.14 14.43927 3.997674 32.592145 14.893623
2004-05-28 11:55:43 51°17.171 2°40.469 14.44835 3.986394 32.530361 14.961042
2004-05-28 11:56:44 51°17.233 2°40.811 14.689807 3.991559 32.505402 15.095879
2004-05-28 11:57:44 51°17.295 2°41.146 14.698896 4.012114 32.519321 14.826204
2004-05-28 11:58:44 51°17.359 2°41.482 14.654835 3.999043 32.523797 15.264426
2004-05-28 11:59:44 51°17.42 2°41.816 14.543591 3.989767 32.508828 15.466683
2004-05-28 12:00:44 51°17.479 2°42.152 14.369926 3.978488 32.485172 15.63523
2004-05-28 12:01:44 51°17.54 2°42.484 14.675732 3.977855 32.455862 15.837486
2004-05-28 12:02:44 51°17.603 2°42.809 14.480711 3.993878 32.514388 15.63523
2004-05-28 12:03:44 51°17.668 2°43.129 14.676257 4.001994 32.481502 15.399264
2004-05-28 12:04:47 51°17.736 2°43.464 14.710781 3.998093 32.438628 15.534101
2004-05-28 12:05:48 51°17.802 2°43.792 14.584705 3.986813 32.368095 16.006033
2004-05-28 12:06:48 51°17.863 2°44.106 14.577876 3.973847 32.309293 16.17458
2004-05-28 12:07:48 51°17.874 2°44.231 14.566275 3.971106 32.293907 16.241999
2004-05-28 12:08:48 51°17.874 2°44.238 14.690287 3.974584 32.269378 16.140871
2004-05-28 12:09:48 51°17.872 2°44.239 14.668694 3.979749 32.273375 16.275708
2004-05-28 12:10:48 51°17.893 2°44.298 14.714931 3.979222 32.272377 16.680221
2004-05-28 12:11:48 51°17.91 2°44.36 14.738606 3.982068 32.266095 16.241999
2004-05-28 12:12:48 51°17.925 2°44.418 14.782613 3.984282 32.264772 15.972324
2004-05-28 12:13:48 51°17.94 2°44.472 14.812633 3.987339 32.262926 15.770067
2004-05-28 12:14:48 51°17.957 2°44.524 14.818173 3.989868 32.261967 15.702648
2004-05-28 12:15:48 51°17.975 2°44.575 14.81922 3.989552 32.260992 15.938614
2004-05-28 12:16:48 51°17.993 2°44.628 14.827333 3.990395 32.261716 15.972324
2004-05-28 12:17:48 51°18.011 2°44.68 14.827028 3.990712 32.26144 16.073452
2004-05-28 12:18:48 51°18.03 2°44.732 14.825414 3.990922 32.26084 16.140871
2004-05-28 12:19:48 51°18.048 2°44.787 14.822099 3.990395 32.26109 16.275708
2004-05-28 12:20:48 51°18.067 2°44.845 14.825719 3.990395 32.259215 16.309418
2004-05-28 12:21:48 51°18.085 2°44.903 14.844254 3.991449 32.258714 16.208289
2004-05-28 12:22:47 51°18.104 2°44.96 14.824629 3.99166 32.259364 16.241999
2004-05-28 12:23:48 51°18.123 2°45.019 14.787632 3.989025 32.261243 16.309418
2004-05-28 12:24:48 51°18.14 2°45.076 14.773273 3.985968 32.2587 16.410546
2004-05-28 12:25:48 51°18.158 2°45.132 14.784839 3.985863 32.255871 16.376836
2004-05-28 12:26:48 51°18.174 2°45.189 14.774364 3.985546 32.251767 16.444255
2004-05-28 12:27:48 51°18.19 2°45.246 14.776372 3.984176 32.248164 16.545383
2004-05-28 12:28:48 51°18.206 2°45.3 14.777899 3.984071 32.241581 16.579093
2004-05-28 12:29:48 51°18.223 2°45.355 14.777899 3.983965 32.242507 16.579093
2004-05-28 12:30:48 51°18.238 2°45.411 14.770785 3.983965 32.240004 16.612802
2004-05-28 12:31:48 51°18.253 2°45.466 14.776677 3.983333 32.239303 16.74764
2004-05-28 12:32:48 51°18.268 2°45.523 14.790338 3.984281 32.235351 16.71393
2004-05-28 12:33:48 51°18.285 2°45.575 14.84264 3.985125 32.237329 16.71393
2004-05-28 12:34:47 51°18.3 2°45.627 14.97977 3.994084 32.226285 16.376836
2004-05-28 12:35:48 51°18.315 2°45.681 15.054099 4.003887 32.226043 16.039742
2004-05-28 12:36:48 51°18.33 2°45.732 15.199912 4.012004 32.225631 15.736358
2004-05-28 12:37:48 51°18.344 2°45.784 15.304757 4.025707 32.230735 15.466683
2004-05-28 12:38:48 51°18.357 2°45.837 15.359001 4.033614 32.234715 15.365554
2004-05-28 12:39:48 51°18.371 2°45.889 15.365578 4.038357 32.249291 15.399264
2004-05-28 12:40:48 51°18.382 2°45.939 15.361597 4.037725 32.250425 15.466683
2004-05-28 12:41:48 51°18.388 2°45.97 15.378299 4.037725 32.240583 15.466683
2004-05-28 12:42:48 51°18.384 2°45.984 15.37142 4.037619 32.232882 15.63523
2004-05-28 12:43:48 51°18.37 2°46.005 15.344243 4.035405 32.226077 15.972324
2004-05-28 12:44:47 51°18.335 2°46.074 15.243014 4.029608 32.224244 16.376836
2004-05-28 12:45:48 51°18.305 2°46.138 15.157043 4.018223 32.202752 16.208289
2004-05-28 12:46:48 51°18.279 2°46.196 15.088822 4.008735 32.186467 16.208289
2004-05-28 12:47:48 51°18.257 2°46.254 15.022185 4.002938 32.174752 16.410546
2004-05-28 12:48:48 51°18.235 2°46.313 14.970152 3.995559 32.167439 16.74764
2004-05-28 12:49:48 51°18.211 2°46.374 15.02349 3.993134 32.151257 16.815059
2004-05-28 12:50:48 51°18.189 2°46.437 15.109109 3.998826 32.140386 16.646512
2004-05-28 12:51:48 51°18.171 2°46.499 15.198133 4.005256 32.130019 16.545383
2004-05-28 12:52:48 51°18.153 2°46.563 15.281669 4.013162 32.128601 16.444255
2004-05-28 12:53:54 51°18.134 2°46.634 15.364843 4.019486 32.119895 16.444255
2004-05-28 12:54:54 51°18.117 2°46.697 15.393482 4.025178 32.108081 16.275708
2004-05-28 12:55:54 51°18.1 2°46.76 15.295531 4.020435 32.095862 16.410546
2004-05-28 12:56:54 51°18.081 2°46.822 15.154395 4.008312 32.094536 16.74764
2004-05-28 12:57:54 51°18.064 2°46.885 15.043275 3.996612 32.084746 17.051024
2004-05-28 12:58:54 51°18.046 2°46.947 14.998523 3.988179 32.07957 17.219571
2004-05-28 12:59:53 51°18.03 2°47.011 14.936065 3.982803 32.071534 17.253281
2004-05-28 13:00:54 51°18.012 2°47.078 14.875728 3.977427 32.070312 17.28699
2004-05-28 13:01:53 51°17.995 2°47.143 14.80478 3.97163 32.074005 17.455537
2004-05-28 13:02:51 51°17.977 2°47.207 14.784315 3.967308 32.070507 17.489247
2004-05-28 13:03:54 51°17.959 2°47.274 14.766419 3.9652 32.06768 17.489247
2004-05-28 13:04:54 51°17.941 2°47.338 14.749567 3.962987 32.065769 17.556665
2004-05-28 13:05:53 51°17.923 2°47.401 14.733321 3.961195 32.063304 17.657794
2004-05-28 13:06:54 51°17.904 2°47.467 14.718252 3.959403 32.057724 17.624084
2004-05-28 13:07:54 51°17.887 2°47.532 14.705538 3.9574 32.050862 17.691503
2004-05-28 13:08:54 51°17.869 2°47.598 14.698984 3.955819 32.045934 17.657794
2004-05-28 13:09:54 51°17.852 2°47.664 14.694439 3.954976 32.042059 17.624084
2004-05-28 13:10:54 51°17.834 2°47.729 14.689282 3.953921 32.040019 17.624084
2004-05-28 13:11:54 51°17.816 2°47.793 14.691598 3.954027 32.042217 17.590375
2004-05-28 13:12:54 51°17.798 2°47.859 14.7006 3.949388 31.996599 17.556665
2004-05-28 13:13:54 51°17.781 2°47.925 14.698853 3.95371 32.028769 17.590375
2004-05-28 13:14:54 51°17.763 2°47.99 14.704052 3.953289 32.02434 17.590375
2004-05-28 13:15:54 51°17.742 2°48.054 14.706674 3.952551 32.017056 17.556665
2004-05-28 13:16:54 51°17.719 2°48.099 14.711524 3.951813 32.006661 17.556665
2004-05-28 13:17:54 51°17.692 2°48.123 14.722183 3.951497 32.002562 17.657794
2004-05-28 13:18:54 51°17.658 2°48.163 14.752798 3.953288 31.998208 17.893759
2004-05-28 13:19:54 51°17.624 2°48.199 14.774757 3.955713 31.997701 18.062306
2004-05-28 13:20:54 51°17.554 2°48.32 14.790294 3.957715 31.997745 18.197144
2004-05-28 13:21:54 51°17.421 2°48.572 14.836622 3.960245 31.995716 18.331982
2004-05-28 13:22:54 51°17.269 2°48.84 14.839719 3.96404 32.004457 18.601657
2004-05-28 13:23:54 51°17.114 2°49.107 14.897125 3.964039 31.985878 18.264563
2004-05-28 13:24:54 51°16.961 2°49.376 14.875554 3.964671 31.95941 17.826341
2004-05-28 13:25:54 51°16.807 2°49.641 14.81874 3.955395 31.933494 18.365691
2004-05-28 13:26:54 51°16.648 2°49.917 14.861562 3.950335 31.894771 19.00617
2004-05-28 13:27:59 51°16.483 2°50.21 14.882876 3.950018 31.845663 18.938751
2004-05-28 13:28:58 51°16.334 2°50.468 14.890066 3.946223 31.811574 19.343264
2004-05-28 13:29:59 51°16.189 2°50.742 14.925221 3.94675 31.806467 19.680358
2004-05-28 13:30:59 51°16.032 2°51.012 14.973938 3.952337 31.806841 19.343264
2004-05-28 13:31:58 51°15.892 2°51.287 14.98373 3.951494 31.812171 19.410683
2004-05-28 13:32:59 51°15.759 2°51.578 15.128651 3.960242 31.810238 18.736494
2004-05-28 13:33:59 51°15.631 2°51.865 15.082522 3.961085 31.821461 18.938751
2004-05-28 13:34:58 51°15.503 2°52.145 15.260394 3.969728 31.77837 19.950033
2004-05-28 13:35:59 51°15.369 2°52.436 15.225412 3.978055 31.768055 19.916324
2004-05-28 13:36:59 51°15.234 2°52.717 15.067182 3.960452 31.749797 19.444392
2004-05-28 13:37:59 51°15.104 2°53.001 15.444716 3.965405 31.676687 19.478101
2004-05-28 13:38:59 51°14.978 2°53.291 15.251423 3.972677 31.649474 19.039879
2004-05-28 13:40:03 51°14.844 2°53.604 15.101508 3.947274 31.618156 19.511811
2004-05-28 13:41:08 51°14.71 2°53.925 15.003395 3.934731 31.594791 20.017452
2004-05-28 13:42:11 51°14.578 2°54.237 15.130518 3.927141 31.530554 19.612939
2004-05-28 13:43:23 51°14.488 2°54.624 15.209584 3.937048 31.493683 18.97246
2004-05-28 13:44:23 51°14.407 2°54.928 15.219732 3.938735 31.482765 19.848905
2004-05-28 13:45:22 51°14.298 2°55.209 15.562043 3.929246 31.314377 22.747913
2004-05-28 13:46:22 51°14.188 2°55.374 15.59931 3.806865 30.00716 24.500802
2004-05-28 13:47:23 51°14.094 2°55.464 15.674344 3.772928 29.723938 24.096289
2004-05-28 13:48:23 51°13.989 2°55.526 15.721149 3.753534 29.478355 24.163708
2004-05-28 13:49:23 51°13.865 2°55.595 15.889117 3.734669 29.25035 23.624358
2004-05-28 13:50:23 51°13.754 2°55.674 16.131761 3.645302 28.272806 23.624358
2004-05-28 13:51:23 51°13.686 2°55.789 15.991706 3.604312 27.915594 25.444665
2004-05-28 13:52:23 51°13.635 2°55.92 15.928266 3.490104 26.993498 28.950443
2004-05-28 13:53:23 51°13.608 2°56.023 15.981587 3.543415 27.56156 33.568631
2004-05-28 13:54:23 51°13.597 2°56.093 16.746696 3.332619 25.375501 28.107708
2004-05-28 13:55:23 51°13.595 2°56.096 16.478136 3.333037 25.196699 23.017589
2004-05-28 13:56:23 51°13.595 2°56.097 16.356618 3.481145 26.6606 21.601794
2004-05-28 13:57:23 51°13.596 2°56.097 16.358579 3.480618 26.67337 21.298409
2004-05-28 13:58:23 51°13.596 2°56.098 16.279727 3.504006 26.905816 20.455674